Time;durP1;ratioP1;P1;durP2;ratioP2;P2;SDS_P1;SDS_P2;PMS_P1;PMS_P2;Temp;Humidity;BMP_temperature;BMP_pressure;BME280_temperature;BME280_humidity;BME280_pressure;Samples;Min_cycle;Max_cycle;Signal;HPM_P1;HPM_P2
2021/12/19 00:02:15;;;;;;;14.63;9.32;;;10.30;76.00;;;;;;5021449;28;20037;-44
2021/12/19 00:10:06;;;;;;;12.73;8.23;;;10.30;75.90;;;;;;5008381;28;20080;-48
2021/12/19 00:12:33;;;;;;;14.48;9.48;;;10.30;75.90;;;;;;5032872;28;20045;-54
2021/12/19 00:15:00;;;;;;;13.38;8.98;;;10.30;75.90;;;;;;5046476;22;20099;-44
2021/12/19 00:17:28;;;;;;;13.60;8.70;;;10.30;75.90;;;;;;5032875;28;20049;-42
2021/12/19 00:19:54;;;;;;;14.25;8.93;;;10.30;75.90;;;;;;5029806;28;20045;-42
2021/12/19 00:22:41;;;;;;;14.85;9.57;;;10.30;75.90;;;;;;5030389;28;20073;-43
2021/12/19 00:25:08;;;;;;;15.82;9.70;;;10.30;75.90;;;;;;5034229;28;20048;-42
2021/12/19 00:27:35;;;;;;;14.15;8.90;;;10.30;75.90;;;;;;5044459;28;20083;-42
2021/12/19 00:30:02;;;;;;;11.25;8.05;;;10.30;75.90;;;;;;5043672;28;20053;-43
2021/12/19 00:32:29;;;;;;;12.20;8.50;;;10.40;76.10;;;;;;5047193;28;20091;-42
2021/12/19 00:34:56;;;;;;;13.95;9.23;;;10.40;76.10;;;;;;5038880;28;20699;-42
2021/12/19 00:37:23;;;;;;;13.65;9.50;;;10.40;76.10;;;;;;5044145;28;20049;-43
2021/12/19 00:39:50;;;;;;;13.75;9.40;;;10.40;76.10;;;;;;5051598;28;20053;-43
2021/12/19 00:42:31;;;;;;;12.10;8.32;;;10.40;76.10;;;;;;5046114;28;20046;-45
2021/12/19 00:45:01;;;;;;;11.38;8.27;;;10.40;76.10;;;;;;5028958;28;20102;-44
2021/12/19 00:47:29;;;;;;;14.98;9.43;;;10.40;75.90;;;;;;5040271;28;20459;-47
2021/12/19 00:49:56;;;;;;;13.60;8.93;;;10.40;75.90;;;;;;5050734;28;20045;-45
2021/12/19 00:52:41;;;;;;;13.77;8.57;;;10.40;75.90;;;;;;5035301;28;20686;-45
2021/12/19 00:55:08;;;;;;;16.05;9.35;;;10.40;75.80;;;;;;5042454;28;20566;-45
2021/12/19 00:57:35;;;;;;;11.23;8.48;;;10.40;75.90;;;;;;5052854;28;20045;-45
2021/12/19 01:00:06;;;;;;;14.75;9.95;;;10.40;75.90;;;;;;5049830;28;20132;-46
2021/12/19 01:02:33;;;;;;;14.35;10.15;;;10.40;76.00;;;;;;5026650;28;20050;-43
2021/12/19 01:05:00;;;;;;;13.63;9.20;;;10.50;76.00;;;;;;5030737;28;20381;-46
2021/12/19 01:07:27;;;;;;;13.18;9.27;;;10.40;76.00;;;;;;5032051;28;20552;-44
2021/12/19 01:09:54;;;;;;;14.43;8.50;;;10.40;76.00;;;;;;5030809;28;20037;-46
2021/12/19 01:12:21;;;;;;;16.77;9.60;;;10.50;76.00;;;;;;5027701;28;20480;-44
2021/12/19 01:14:48;;;;;;;13.20;8.68;;;10.50;76.00;;;;;;5040467;28;20041;-45
2021/12/19 01:17:14;;;;;;;13.93;8.15;;;10.50;75.90;;;;;;5037826;28;20048;-44
2021/12/19 01:19:41;;;;;;;13.40;9.65;;;10.50;75.90;;;;;;5029778;28;20084;-42
2021/12/19 01:22:08;;;;;;;12.75;9.05;;;10.50;75.80;;;;;;5030994;28;20037;-43
2021/12/19 01:24:35;;;;;;;12.52;9.05;;;10.50;75.80;;;;;;5041637;28;20098;-43
2021/12/19 01:27:03;;;;;;;13.02;8.85;;;10.50;75.80;;;;;;5031094;28;20045;-44
2021/12/19 01:29:30;;;;;;;13.57;8.20;;;10.50;75.80;;;;;;5030555;28;20041;-44
2021/12/19 01:31:57;;;;;;;12.30;8.07;;;10.50;75.80;;;;;;5038005;28;20065;-44
2021/12/19 01:34:24;;;;;;;12.73;8.52;;;10.50;75.80;;;;;;5038485;28;20041;-45
2021/12/19 01:36:51;;;;;;;14.93;8.95;;;10.50;75.90;;;;;;5046005;28;20110;-45
2021/12/19 01:39:18;;;;;;;12.15;8.80;;;10.50;76.00;;;;;;5027446;28;20042;-43
2021/12/19 01:41:51;;;;;;;11.25;8.45;;;10.50;76.00;;;;;;5038403;28;20073;-46
2021/12/19 01:44:18;;;;;;;12.38;8.32;;;10.50;76.00;;;;;;5025149;28;20041;-45
2021/12/19 01:46:46;;;;;;;12.15;8.80;;;10.50;76.00;;;;;;5050746;28;20053;-43
2021/12/19 01:49:14;;;;;;;11.82;8.15;;;10.50;75.90;;;;;;5035295;28;20729;-43
2021/12/19 01:51:42;;;;;;;11.30;8.23;;;10.50;75.90;;;;;;5039414;28;20045;-43
2021/12/19 01:54:09;;;;;;;13.10;8.73;;;10.50;75.80;;;;;;5050396;28;20120;-43
2021/12/19 01:56:39;;;;;;;14.18;8.88;;;10.50;75.90;;;;;;5024733;28;20574;-43
2021/12/19 01:59:09;;;;;;;11.82;8.18;;;10.40;75.90;;;;;;5027170;28;20099;-43
2021/12/19 02:01:51;;;;;;;12.88;8.38;;;10.50;76.00;;;;;;5040914;28;20041;-43
2021/12/19 02:04:21;;;;;;;13.48;9.32;;;10.50;76.00;;;;;;5044222;28;20056;-45
2021/12/19 02:06:49;;;;;;;13.98;8.48;;;10.50;75.90;;;;;;5035266;28;20050;-43
2021/12/19 02:09:19;;;;;;;11.93;7.43;;;10.50;75.80;;;;;;5032854;28;20037;-42
2021/12/19 02:11:45;;;;;;;13.15;8.88;;;10.50;76.50;;;;;;5038907;28;20041;-47
2021/12/19 02:14:12;;;;;;;11.43;7.30;;;10.50;75.80;;;;;;5049402;28;20079;-44
2021/12/19 02:16:40;;;;;;;12.50;7.97;;;10.50;75.90;;;;;;5026081;28;20103;-43
2021/12/19 02:19:09;;;;;;;12.07;8.55;;;10.50;76.00;;;;;;5038272;28;20048;-46
2021/12/19 02:21:36;;;;;;;12.73;8.45;;;10.50;76.00;;;;;;5042349;28;20097;-42
2021/12/19 02:24:09;;;;;;;10.77;7.95;;;10.50;76.00;;;;;;5038825;28;20374;-46
2021/12/19 02:26:40;;;;;;;14.75;8.65;;;10.40;76.00;;;;;;5032341;28;20049;-47
2021/12/19 02:29:07;;;;;;;10.73;7.88;;;10.50;76.10;;;;;;5029626;28;20041;-44
2021/12/19 02:31:34;;;;;;;11.40;7.45;;;10.50;76.00;;;;;;5030192;28;20080;-45
2021/12/19 02:34:10;;;;;;;11.80;8.57;;;10.50;76.00;;;;;;5029354;28;20049;-46
2021/12/19 02:37:33;;;;;;;13.30;8.52;;;10.50;75.90;;;;;;5026400;28;20088;-43
2021/12/19 02:50:31;;;;;;;15.35;10.05;;;10.40;76.10;;;;;;5045042;28;20407;-44
2021/12/19 02:52:59;;;;;;;13.40;8.32;;;10.40;76.10;;;;;;5044909;28;20044;-45
2021/12/19 02:55:29;;;;;;;13.90;8.52;;;10.40;76.20;;;;;;5029587;28;20084;-43
2021/12/19 02:57:58;;;;;;;13.43;8.50;;;10.40;76.20;;;;;;5041715;28;20501;-44
2021/12/19 03:00:26;;;;;;;13.88;9.48;;;10.40;76.20;;;;;;5044576;28;20068;-43
2021/12/19 03:02:53;;;;;;;15.75;9.43;;;10.30;76.30;;;;;;5044781;28;20045;-43
2021/12/19 03:05:20;;;;;;;14.63;8.82;;;10.30;76.30;;;;;;5035710;28;20041;-42
2021/12/19 03:07:50;;;;;;;14.82;9.07;;;10.30;76.50;;;;;;5038416;28;20068;-43
2021/12/19 03:18:32;;;;;;;11.43;7.88;;;10.30;76.50;;;;;;5040711;28;20049;-43
2021/12/19 03:20:59;;;;;;;16.60;8.38;;;10.30;76.50;;;;;;5049351;28;20118;-43
2021/12/19 03:23:27;;;;;;;10.82;7.10;;;10.20;76.60;;;;;;5027361;28;20456;-45
2021/12/19 03:25:53;;;;;;;10.18;6.20;;;10.20;76.60;;;;;;5040034;28;20049;-46
2021/12/19 03:28:21;;;;;;;11.05;7.90;;;10.20;77.40;;;;;;5048838;28;20067;-47
2021/12/19 03:30:48;;;;;;;9.15;6.95;;;10.20;76.90;;;;;;5049535;28;20037;-46
2021/12/19 03:33:15;;;;;;;10.52;7.10;;;10.20;77.60;;;;;;5027060;28;20099;-47
2021/12/19 03:35:42;;;;;;;11.73;6.30;;;10.20;77.10;;;;;;5039931;28;20385;-43
2021/12/19 03:38:12;;;;;;;9.73;6.45;;;10.20;77.20;;;;;;5032240;28;20073;-46
2021/12/19 03:40:43;;;;;;;9.15;6.28;;;10.10;77.30;;;;;;5039038;28;20091;-42
2021/12/19 03:43:13;;;;;;;9.13;6.05;;;10.10;77.20;;;;;;5045374;28;20048;-43
2021/12/19 03:45:42;;;;;;;10.95;6.57;;;10.10;77.40;;;;;;5052953;28;20076;-42
2021/12/19 03:48:12;;;;;;;9.27;5.95;;;10.10;77.30;;;;;;5036183;28;20084;-43
2021/12/19 03:50:43;;;;;;;9.68;6.90;;;10.10;77.40;;;;;;5037190;28;20048;-43
2021/12/19 03:53:16;;;;;;;10.85;6.32;;;10.10;77.50;;;;;;5039071;28;20045;-43
2021/12/19 03:55:44;;;;;;;10.88;7.03;;;10.10;77.60;;;;;;5043824;28;20519;-42
2021/12/19 03:58:12;;;;;;;10.45;6.63;;;10.10;77.40;;;;;;5053498;28;20045;-44
2021/12/19 04:00:42;;;;;;;10.07;6.55;;;10.10;77.40;;;;;;5032435;28;20042;-44
2021/12/19 04:03:10;;;;;;;10.82;7.05;;;10.10;77.50;;;;;;5023540;28;20045;-43
2021/12/19 04:05:42;;;;;;;11.82;6.88;;;10.10;77.50;;;;;;5043585;28;20116;-43
2021/12/19 04:08:09;;;;;;;11.07;6.50;;;10.10;78.10;;;;;;5029903;28;20038;-45
2021/12/19 04:10:36;;;;;;;10.38;6.95;;;10.10;77.50;;;;;;5032839;28;20045;-47
2021/12/19 04:13:04;;;;;;;10.77;6.40;;;10.10;77.60;;;;;;5036738;28;20428;-44
2021/12/19 04:15:31;;;;;;;10.60;6.97;;;10.10;77.60;;;;;;5038628;28;20041;-42
2021/12/19 04:17:58;;;;;;;10.20;6.80;;;10.10;77.70;;;;;;5014907;28;20096;-43
2021/12/19 04:20:24;;;;;;;10.23;6.47;;;10.10;77.60;;;;;;5035202;28;20798;-45
2021/12/19 04:22:52;;;;;;;9.95;6.93;;;10.10;77.60;;;;;;5044144;28;20086;-43
2021/12/19 04:25:20;;;;;;;10.32;6.50;;;10.20;77.80;;;;;;5038336;28;20056;-43
2021/12/19 04:27:47;;;;;;;10.63;6.95;;;10.10;77.80;;;;;;5028403;28;20065;-42
2021/12/19 04:30:18;;;;;;;10.45;6.47;;;10.10;77.70;;;;;;5029140;28;20045;-43
2021/12/19 04:32:55;;;;;;;14.07;6.82;;;10.10;77.70;;;;;;5024830;28;20103;-43
2021/12/19 04:35:22;;;;;;;12.30;7.32;;;10.10;77.60;;;;;;5051739;28;20049;-44
2021/12/19 04:41:35;;;;;;;9.50;6.97;;;10.10;77.80;;;;;;5043479;28;20103;-43
2021/12/19 04:44:12;;;;;;;12.07;7.45;;;10.10;77.80;;;;;;5036340;28;20092;-43
2021/12/19 04:51:58;;;;;;;12.25;7.22;;;10.10;77.80;;;;;;5043764;28;20037;-43
2021/12/19 04:57:29;;;;;;;11.15;7.07;;;10.00;77.70;;;;;;5039708;28;20084;-45
2021/12/19 05:01:08;;;;;;;12.07;7.55;;;10.00;77.80;;;;;;5042252;28;20052;-42
2021/12/19 05:16:31;;;;;;;12.82;8.07;;;10.00;78.50;;;;;;5036121;28;20041;-42
2021/12/19 05:19:05;;;;;;;13.63;7.68;;;10.00;77.90;;;;;;5041810;28;20045;-43
2021/12/19 05:21:34;;;;;;;15.77;8.20;;;10.00;77.80;;;;;;5051899;28;20102;-43
2021/12/19 05:26:28;;;;;;;13.60;8.80;;;10.00;77.90;;;;;;5033401;28;20103;-42
2021/12/19 05:28:55;;;;;;;14.00;8.38;;;9.90;77.90;;;;;;5040598;28;20037;-42
2021/12/19 05:31:23;;;;;;;14.05;7.68;;;9.90;78.00;;;;;;5051464;28;20063;-42
2021/12/19 05:33:49;;;;;;;13.93;8.90;;;9.90;78.00;;;;;;5050550;28;20041;-45
2021/12/19 05:47:04;;;;;;;11.88;7.45;;;9.90;78.20;;;;;;5032729;28;20555;-47
2021/12/19 05:49:32;;;;;;;11.82;7.88;;;9.90;78.20;;;;;;5045307;28;20041;-46
2021/12/19 05:52:00;;;;;;;13.82;7.47;;;10.00;78.30;;;;;;5050591;28;20083;-48
2021/12/19 05:54:27;;;;;;;12.85;8.20;;;9.90;78.20;;;;;;5029993;28;20080;-45
2021/12/19 05:56:54;;;;;;;12.35;7.85;;;9.90;78.30;;;;;;5040253;28;20061;-44
2021/12/19 05:59:21;;;;;;;15.20;8.15;;;9.90;78.20;;;;;;5044784;28;20500;-46
2021/12/19 06:01:47;;;;;;;16.70;8.55;;;9.90;78.30;;;;;;5045202;28;20041;-43
2021/12/19 06:04:14;;;;;;;13.18;8.57;;;9.90;78.40;;;;;;5023318;28;20048;-44
2021/12/19 06:06:41;;;;;;;13.63;7.70;;;9.90;78.40;;;;;;5029762;28;20042;-47
2021/12/19 06:09:09;;;;;;;17.33;9.07;;;9.90;78.40;;;;;;5030251;28;20132;-45
2021/12/19 06:11:36;;;;;;;13.30;8.45;;;9.90;78.30;;;;;;5028665;28;20099;-45
2021/12/19 06:14:02;;;;;;;16.65;8.80;;;9.90;78.20;;;;;;5030252;22;20052;-45
2021/12/19 06:16:30;;;;;;;14.82;9.48;;;9.90;78.20;;;;;;5036198;28;20099;-43
2021/12/19 06:18:59;;;;;;;15.27;10.32;;;9.90;78.20;;;;;;5029589;28;20037;-44
2021/12/19 06:21:26;;;;;;;13.75;7.93;;;9.90;78.20;;;;;;5027152;28;20042;-43
2021/12/19 06:23:52;;;;;;;13.00;8.57;;;9.90;78.20;;;;;;5032173;28;20107;-45
2021/12/19 06:26:19;;;;;;;16.13;9.60;;;9.90;78.20;;;;;;5031106;28;20041;-44
2021/12/19 06:28:46;;;;;;;17.38;8.90;;;9.80;78.20;;;;;;5028898;28;20099;-47
2021/12/19 06:31:15;;;;;;;14.73;7.97;;;9.80;78.10;;;;;;5036188;28;20041;-44
2021/12/19 06:33:42;;;;;;;16.73;8.15;;;9.80;78.20;;;;;;5041314;28;20154;-45
2021/12/19 06:36:09;;;;;;;14.00;8.18;;;9.80;78.20;;;;;;5049941;28;20045;-44
2021/12/19 06:38:36;;;;;;;14.57;8.70;;;9.70;78.20;;;;;;5029530;28;20099;-44
2021/12/19 06:41:03;;;;;;;14.98;8.77;;;9.70;78.20;;;;;;5033477;28;20112;-48
2021/12/19 06:43:32;;;;;;;13.25;8.00;;;9.70;78.20;;;;;;5033113;28;20095;-45
2021/12/19 06:45:59;;;;;;;14.13;9.23;;;9.70;78.30;;;;;;5049030;28;20033;-46
2021/12/19 06:48:26;;;;;;;14.27;9.25;;;9.70;78.40;;;;;;5048510;28;20041;-45
2021/12/19 06:50:53;;;;;;;16.00;8.63;;;9.70;78.40;;;;;;5034478;28;20095;-47
2021/12/19 06:53:20;;;;;;;12.40;8.40;;;9.70;78.40;;;;;;5042130;28;20037;-45
2021/12/19 06:55:47;;;;;;;16.38;9.15;;;9.60;78.30;;;;;;5049757;28;20086;-45
2021/12/19 06:58:14;;;;;;;13.43;8.43;;;9.60;78.30;;;;;;5037562;28;20072;-47
2021/12/19 07:00:41;;;;;;;14.77;8.48;;;9.60;78.30;;;;;;5029401;28;20103;-43
2021/12/19 07:03:10;;;;;;;15.45;8.02;;;9.60;78.30;;;;;;5042157;28;20573;-47
2021/12/19 07:05:38;;;;;;;9.75;6.72;;;9.60;78.30;;;;;;5044057;28;20042;-44
2021/12/19 07:08:05;;;;;;;10.45;6.55;;;9.60;78.20;;;;;;5019033;28;20045;-46
2021/12/19 07:10:32;;;;;;;10.82;6.07;;;9.60;78.20;;;;;;5031691;28;20087;-47
2021/12/19 07:12:59;;;;;;;10.65;5.93;;;9.60;78.20;;;;;;5038743;28;20052;-44
2021/12/19 07:15:27;;;;;;;10.02;5.88;;;9.60;78.30;;;;;;5020500;28;20108;-48
2021/12/19 07:17:55;;;;;;;11.02;5.32;;;9.60;78.20;;;;;;5004246;28;20052;-45
2021/12/19 07:20:24;;;;;;;7.32;5.20;;;9.60;78.20;;;;;;5042486;28;20037;-44
2021/12/19 07:22:51;;;;;;;10.52;6.07;;;9.60;78.10;;;;;;5046854;28;20563;-45
2021/12/19 07:25:18;;;;;;;11.32;5.78;;;9.60;78.10;;;;;;5028712;28;20053;-45
2021/12/19 07:27:45;;;;;;;10.20;5.80;;;9.60;78.10;;;;;;5030364;28;20063;-44
2021/12/19 07:30:12;;;;;;;11.32;6.03;;;9.60;78.00;;;;;;5040427;28;20045;-44
2021/12/19 07:32:41;;;;;;;9.88;5.90;;;9.60;78.00;;;;;;5048722;28;20041;-45
2021/12/19 07:35:21;;;;;;;8.93;6.03;;;9.60;78.00;;;;;;5039937;28;20491;-46
2021/12/19 07:37:50;;;;;;;7.50;5.25;;;9.60;77.90;;;;;;5031353;28;20116;-43
2021/12/19 07:40:19;;;;;;;9.85;5.53;;;9.70;77.90;;;;;;5038309;28;20520;-47
2021/12/19 07:42:46;;;;;;;7.20;4.95;;;9.70;77.80;;;;;;5047324;28;20106;-44
2021/12/19 07:45:15;;;;;;;7.90;4.97;;;9.60;77.80;;;;;;5023977;28;20116;-44
2021/12/19 07:47:43;;;;;;;8.40;4.72;;;9.70;77.90;;;;;;5000381;28;20504;-45
2021/12/19 07:50:11;;;;;;;7.78;4.78;;;9.70;77.90;;;;;;5016604;28;20049;-45
2021/12/19 07:52:39;;;;;;;7.25;3.58;;;9.70;77.90;;;;;;5015475;28;20092;-45
2021/12/19 07:55:07;;;;;;;6.20;4.28;;;9.70;77.90;;;;;;5019676;28;20060;-49
2021/12/19 07:57:35;;;;;;;7.03;3.75;;;9.60;77.90;;;;;;5021358;28;20045;-48
2021/12/19 08:00:05;;;;;;;3.92;3.22;;;9.70;77.80;;;;;;5023765;28;20077;-46
2021/12/19 08:02:38;;;;;;;5.50;2.95;;;9.70;78.30;;;;;;5001749;28;20081;-47
2021/12/19 08:05:06;;;;;;;4.40;3.08;;;9.70;77.70;;;;;;5024766;28;20060;-44
2021/12/19 08:07:33;;;;;;;6.30;3.38;;;9.70;77.80;;;;;;5019435;28;20111;-44
2021/12/19 08:10:14;;;;;;;4.53;3.45;;;9.70;77.90;;;;;;5021312;28;20046;-44
2021/12/19 08:12:42;;;;;;;5.40;3.13;;;9.60;77.90;;;;;;5017498;28;20524;-46
2021/12/19 08:15:10;;;;;;;4.00;3.00;;;9.70;77.90;;;;;;5023500;28;20075;-49
2021/12/19 08:17:37;;;;;;;6.20;3.58;;;9.70;77.90;;;;;;5020738;28;20037;-47
2021/12/19 08:20:06;;;;;;;6.07;3.58;;;9.70;77.90;;;;;;5018964;28;20041;-48
2021/12/19 08:22:34;;;;;;;7.13;3.53;;;9.70;78.10;;;;;;5019281;28;20049;-49
2021/12/19 08:25:01;;;;;;;4.20;3.22;;;9.70;77.90;;;;;;5024594;28;20111;-47
2021/12/19 08:27:33;;;;;;;4.82;3.40;;;9.70;78.00;;;;;;5020266;28;20045;-49
2021/12/19 08:30:00;;;;;;;5.78;3.50;;;9.70;78.00;;;;;;5033272;28;20546;-49
2021/12/19 08:32:27;;;;;;;5.28;3.58;;;9.70;78.00;;;;;;5028688;28;20806;-46
2021/12/19 08:34:54;;;;;;;7.22;4.32;;;9.70;78.00;;;;;;5026902;28;20444;-46
2021/12/19 08:37:21;;;;;;;5.75;3.85;;;9.70;78.10;;;;;;5022399;28;20077;-48
2021/12/19 08:39:47;;;;;;;6.38;4.32;;;9.70;78.10;;;;;;5026015;28;20092;-49
2021/12/19 08:42:15;;;;;;;5.93;3.78;;;9.70;78.10;;;;;;5025498;28;20100;-44
2021/12/19 08:44:42;;;;;;;7.53;4.18;;;9.70;78.20;;;;;;5031058;28;20049;-49
2021/12/19 08:47:10;;;;;;;8.02;5.32;;;9.70;78.20;;;;;;5007299;28;20053;-45
2021/12/19 08:49:37;;;;;;;7.25;4.47;;;9.60;78.20;;;;;;5023953;28;20030;-49
2021/12/19 08:52:04;;;;;;;9.57;4.35;;;9.80;78.40;;;;;;5022128;28;20037;-45
2021/12/19 08:54:31;;;;;;;5.80;3.65;;;9.80;78.40;;;;;;5020358;28;20136;-45
2021/12/19 08:56:59;;;;;;;6.38;4.43;;;9.70;78.30;;;;;;5009210;28;20048;-45
2021/12/19 08:59:29;;;;;;;8.48;4.60;;;9.80;78.20;;;;;;5017957;28;20037;-47
2021/12/19 09:02:01;;;;;;;6.47;4.40;;;9.80;78.30;;;;;;5028540;28;20091;-46
2021/12/19 09:04:29;;;;;;;9.23;5.47;;;9.80;78.30;;;;;;5019976;28;20091;-48
2021/12/19 09:06:58;;;;;;;5.50;3.80;;;9.80;78.30;;;;;;5022335;28;20040;-45
2021/12/19 09:09:24;;;;;;;8.02;4.38;;;9.80;78.20;;;;;;5021008;28;20042;-45
2021/12/19 09:11:52;;;;;;;8.05;4.68;;;9.80;78.20;;;;;;5038251;28;20049;-47
2021/12/19 09:14:19;;;;;;;7.78;4.47;;;9.90;78.40;;;;;;5022039;28;20033;-46
2021/12/19 09:16:46;;;;;;;7.35;4.40;;;9.90;78.40;;;;;;5029284;28;20087;-48
2021/12/19 09:19:14;;;;;;;8.60;4.57;;;9.90;78.50;;;;;;5021459;28;20041;-49
2021/12/19 09:21:41;;;;;;;7.47;4.43;;;9.90;78.50;;;;;;5037207;28;20154;-48
2021/12/19 09:24:08;;;;;;;9.35;5.43;;;9.90;78.50;;;;;;5021836;28;20061;-44
2021/12/19 09:26:35;;;;;;;7.13;4.40;;;9.90;78.60;;;;;;5010086;28;20324;-48
2021/12/19 09:29:02;;;;;;;7.93;4.47;;;10.00;78.60;;;;;;5018103;28;20049;-45
2021/12/19 09:31:29;;;;;;;7.40;4.07;;;10.00;78.50;;;;;;5033085;28;20080;-44
2021/12/19 09:33:56;;;;;;;7.60;4.18;;;10.00;78.50;;;;;;5017467;28;20033;-45
2021/12/19 09:36:24;;;;;;;6.03;4.07;;;10.00;78.40;;;;;;5024256;28;20099;-44
2021/12/19 09:38:52;;;;;;;6.57;4.80;;;10.00;78.20;;;;;;5017706;28;20041;-46
2021/12/19 09:41:29;;;;;;;6.47;4.20;;;10.00;78.20;;;;;;5038332;28;20507;-48
2021/12/19 09:43:58;;;;;;;6.80;4.18;;;10.10;78.40;;;;;;5017471;28;20042;-46
2021/12/19 09:46:31;;;;;;;7.78;4.60;;;10.10;78.30;;;;;;5020621;28;20045;-45
2021/12/19 09:48:58;;;;;;;8.45;4.93;;;10.10;78.20;;;;;;5019712;28;20667;-48
2021/12/19 09:51:25;;;;;;;6.97;4.40;;;10.10;78.20;;;;;;5024187;28;20037;-44
2021/12/19 09:53:52;;;;;;;6.70;4.78;;;10.10;78.20;;;;;;5016248;28;20044;-48
2021/12/19 09:56:19;;;;;;;6.53;4.72;;;10.20;78.20;;;;;;5020410;28;20041;-48
2021/12/19 09:58:49;;;;;;;7.25;4.25;;;10.20;78.10;;;;;;5017602;28;20057;-48
2021/12/19 10:01:16;;;;;;;6.90;4.65;;;10.20;78.00;;;;;;5033361;28;20045;-45
2021/12/19 10:03:43;;;;;;;9.48;5.75;;;10.20;77.90;;;;;;5012751;28;20037;-47
2021/12/19 10:06:25;;;;;;;8.07;4.72;;;10.20;77.80;;;;;;5024411;28;20048;-46
2021/12/19 10:09:18;;;;;;;8.25;4.60;;;10.20;77.80;;;;;;5013362;28;20087;-46
2021/12/19 10:14:33;;;;;;;9.18;5.53;;;10.20;77.70;;;;;;5016110;28;20046;-47
2021/12/19 10:17:21;;;;;;;8.13;4.50;;;10.20;77.80;;;;;;5024135;28;20049;-45
2021/12/19 10:19:51;;;;;;;6.68;4.97;;;10.30;77.70;;;;;;5013033;28;20398;-47
2021/12/19 10:22:28;;;;;;;8.20;5.47;;;10.30;77.70;;;;;;5013907;28;20106;-48
2021/12/19 10:24:58;;;;;;;10.43;6.47;;;10.30;77.80;;;;;;5024763;28;20054;-45
2021/12/19 10:27:44;;;;;;;9.20;6.20;;;10.30;77.90;;;;;;5024324;28;20037;-45
2021/12/19 10:30:26;;;;;;;11.27;7.07;;;10.30;78.00;;;;;;5023781;28;20480;-45
2021/12/19 10:32:58;;;;;;;11.23;7.68;;;10.30;78.00;;;;;;4998855;28;20037;-44
2021/12/19 10:35:39;;;;;;;10.65;6.38;;;10.30;77.90;;;;;;5020572;28;20037;-48
2021/12/19 10:38:15;;;;;;;10.40;6.10;;;10.40;77.90;;;;;;5018632;28;20064;-48
2021/12/19 10:40:58;;;;;;;8.95;6.00;;;10.30;77.70;;;;;;5011276;28;20054;-43
2021/12/19 10:43:29;;;;;;;10.90;7.13;;;10.40;77.80;;;;;;5008326;28;20046;-45
2021/12/19 10:46:05;;;;;;;10.90;6.53;;;10.30;77.60;;;;;;5026141;28;20049;-44
2021/12/19 10:48:39;;;;;;;9.25;6.13;;;10.40;77.70;;;;;;5016251;28;20041;-45
2021/12/19 10:51:11;;;;;;;10.23;6.95;;;10.30;77.70;;;;;;5025334;28;20046;-45
2021/12/19 10:53:43;;;;;;;11.25;6.82;;;10.40;77.80;;;;;;5017753;28;20448;-45
2021/12/19 10:56:16;;;;;;;7.53;5.68;;;10.30;77.80;;;;;;5023236;28;20030;-46
2021/12/19 10:58:48;;;;;;;8.88;5.82;;;10.40;78.00;;;;;;5017243;28;20088;-45
2021/12/19 11:01:29;;;;;;;8.98;6.28;;;10.40;78.10;;;;;;5018933;28;20462;-45
2021/12/19 11:04:09;;;;;;;8.35;6.00;;;10.40;78.00;;;;;;5016951;28;20045;-44
2021/12/19 11:06:41;;;;;;;8.93;5.70;;;10.40;77.80;;;;;;5024652;28;20508;-45
2021/12/19 11:09:19;;;;;;;10.27;6.32;;;10.40;77.80;;;;;;5002152;28;20501;-45
2021/12/19 11:11:50;;;;;;;12.40;7.38;;;10.40;77.70;;;;;;5019518;28;20379;-45
2021/12/19 11:14:40;;;;;;;7.50;5.55;;;10.40;77.80;;;;;;5019857;28;20099;-45
2021/12/19 11:17:15;;;;;;;9.32;6.10;;;10.40;78.10;;;;;;5023031;28;20124;-46
2021/12/19 11:19:43;;;;;;;8.80;6.30;;;10.40;77.80;;;;;;5019547;28;20525;-45
2021/12/19 11:22:25;;;;;;;;;;;10.40;77.70;;;;;;5022709;28;20056;-46
2021/12/19 11:24:54;;;;;;;8.20;5.97;;;10.50;78.10;;;;;;5022123;28;20008;-45
2021/12/19 11:27:21;;;;;;;10.27;6.30;;;10.50;77.60;;;;;;5019715;28;20076;-45
2021/12/19 11:29:54;;;;;;;9.15;5.97;;;10.40;77.60;;;;;;5024770;28;20065;-45
2021/12/19 11:32:24;;;;;;;7.93;5.60;;;10.40;77.70;;;;;;5030661;28;20240;-44
2021/12/19 11:35:09;;;;;;;10.65;6.13;;;10.40;77.60;;;;;;5019049;28;20054;-47
2021/12/19 11:37:40;;;;;;;9.25;6.28;;;10.40;77.80;;;;;;5020084;28;20460;-45
2021/12/19 11:40:09;;;;;;;9.25;5.75;;;10.40;77.80;;;;;;5025165;28;20029;-45
2021/12/19 11:42:39;;;;;;;9.23;6.25;;;10.50;77.90;;;;;;5025424;28;20045;-49
2021/12/19 11:45:41;;;;;;;12.02;6.53;;;10.50;77.90;;;;;;5024233;28;20671;-45
2021/12/19 11:48:16;;;;;;;7.95;6.20;;;10.50;78.00;;;;;;5005188;28;20161;-46
2021/12/19 11:51:01;;;;;;;9.45;6.60;;;10.50;77.80;;;;;;5030909;28;20045;-44
2021/12/19 11:53:35;;;;;;;10.38;6.45;;;10.50;78.10;;;;;;5011978;28;20044;-45
2021/12/19 11:56:11;;;;;;;9.55;5.63;;;10.50;78.00;;;;;;5021483;28;20041;-45
2021/12/19 11:58:45;;;;;;;11.07;6.18;;;10.50;78.00;;;;;;5013851;28;20041;-45
2021/12/19 12:01:29;;;;;;;8.85;5.95;;;10.50;78.00;;;;;;5030916;28;20435;-45
2021/12/19 12:03:57;;;;;;;8.13;5.82;;;10.50;77.90;;;;;;5003312;28;20038;-45
2021/12/19 12:06:38;;;;;;;9.13;6.30;;;10.50;77.80;;;;;;5029454;28;20071;-44
2021/12/19 12:09:20;;;;;;;8.93;5.68;;;10.50;77.80;;;;;;5022792;28;20087;-45
2021/12/19 12:12:13;;;;;;;7.50;5.18;;;10.50;77.80;;;;;;5041393;28;20048;-45
2021/12/19 12:14:51;;;;;;;7.18;5.30;;;10.50;77.90;;;;;;5018031;28;20116;-46
2021/12/19 12:17:23;;;;;;;10.88;6.10;;;10.50;77.90;;;;;;5022217;28;20084;-47
2021/12/19 12:19:55;;;;;;;10.90;5.72;;;10.50;77.80;;;;;;5024162;28;20382;-46
2021/12/19 12:25:07;;;;;;;10.30;5.72;;;10.50;77.80;;;;;;5026736;28;20095;-45
2021/12/19 12:27:43;;;;;;;8.30;5.15;;;10.50;78.00;;;;;;5025146;28;20108;-45
2021/12/19 12:30:22;;;;;;;7.60;4.15;;;10.50;77.80;;;;;;5012252;28;20033;-48
2021/12/19 12:32:48;;;;;;;6.97;4.22;;;10.50;77.80;;;;;;5024538;28;20030;-46
2021/12/19 12:35:17;;;;;;;5.00;3.42;;;10.50;77.80;;;;;;5006423;28;20500;-48
2021/12/19 12:37:44;;;;;;;4.38;3.30;;;10.50;78.00;;;;;;5019062;28;20124;-44
2021/12/19 12:40:21;;;;;;;5.03;3.65;;;10.50;77.90;;;;;;5030446;28;20041;-46
2021/12/19 12:43:14;;;;;;;4.97;3.13;;;10.50;78.00;;;;;;5022291;28;20042;-44
2021/12/19 12:46:06;;;;;;;4.20;2.60;;;10.50;77.80;;;;;;5007879;28;20047;-44
2021/12/19 12:49:00;;;;;;;3.45;2.50;;;10.60;77.80;;;;;;5018106;28;20037;-46
2021/12/19 12:51:39;;;;;;;3.10;2.33;;;10.60;77.70;;;;;;5035839;28;20040;-45
2021/12/19 12:54:12;;;;;;;2.58;1.88;;;10.60;77.70;;;;;;5017666;28;20065;-45
2021/12/19 12:56:46;;;;;;;2.47;1.98;;;10.60;77.50;;;;;;5026986;28;20038;-46
2021/12/19 12:59:22;;;;;;;2.30;1.85;;;10.60;77.50;;;;;;5019183;22;20054;-47
2021/12/19 13:01:52;;;;;;;1.48;1.05;;;10.60;77.30;;;;;;4994310;28;20452;-48
2021/12/19 13:04:26;;;;;;;1.92;1.40;;;10.60;77.20;;;;;;4969064;28;20046;-44
2021/12/19 13:07:06;;;;;;;2.25;1.35;;;10.60;77.00;;;;;;4991411;28;20095;-48
2021/12/19 13:09:46;;;;;;;1.60;0.88;;;10.60;77.00;;;;;;4987922;28;20060;-45
2021/12/19 13:12:29;;;;;;;1.25;1.10;;;10.60;76.90;;;;;;4991155;28;20034;-45
2021/12/19 13:15:05;;;;;;;1.55;1.20;;;10.60;76.80;;;;;;4990163;28;20112;-44
2021/12/19 13:17:33;;;;;;;1.52;1.30;;;10.60;76.80;;;;;;5000938;28;20038;-44
2021/12/19 13:20:04;;;;;;;1.13;1.02;;;10.60;76.80;;;;;;5010348;28;20060;-46
2021/12/19 13:22:55;;;;;;;1.27;0.85;;;10.60;76.70;;;;;;5002009;28;20132;-48
2021/12/19 13:25:25;;;;;;;1.52;0.82;;;10.60;76.70;;;;;;4999640;28;20050;-44
2021/12/19 13:27:53;;;;;;;1.17;1.02;;;10.60;76.60;;;;;;4993200;28;20054;-49
2021/12/19 13:30:31;;;;;;;1.20;1.00;;;10.60;76.40;;;;;;5002925;28;20485;-47
2021/12/19 13:33:00;;;;;;;1.58;1.10;;;10.60;75.60;;;;;;5006887;28;20037;-47
2021/12/19 13:35:42;;;;;;;1.42;1.33;;;10.60;75.70;;;;;;5003833;28;20058;-44
2021/12/19 13:38:13;;;;;;;1.75;1.33;;;10.60;75.50;;;;;;5005625;28;20038;-47
2021/12/19 13:40:51;;;;;;;1.30;1.20;;;10.60;75.50;;;;;;5000697;28;20040;-42
2021/12/19 13:43:41;;;;;;;1.80;1.27;;;10.60;75.20;;;;;;4998488;28;20038;-47
2021/12/19 13:46:13;;;;;;;1.80;1.45;;;10.60;75.20;;;;;;5011240;28;20073;-47
2021/12/19 13:48:48;;;;;;;1.92;1.38;;;10.60;75.40;;;;;;5004843;28;20104;-44
2021/12/19 13:51:22;;;;;;;1.80;1.27;;;10.60;75.50;;;;;;5004448;28;20104;-47
2021/12/19 13:53:54;;;;;;;1.75;1.45;;;10.60;75.50;;;;;;5000335;28;20038;-44
2021/12/19 13:56:26;;;;;;;2.00;1.70;;;10.50;75.60;;;;;;5002441;28;20044;-48
2021/12/19 13:58:58;;;;;;;2.15;1.55;;;10.50;75.50;;;;;;5002349;28;20046;-46
2021/12/19 14:01:37;;;;;;;3.10;1.50;;;10.60;75.60;;;;;;4974821;28;20050;-47
2021/12/19 14:04:29;;;;;;;2.58;1.77;;;10.60;75.50;;;;;;4991036;28;20382;-45
2021/12/19 14:06:58;;;;;;;1.50;1.40;;;10.50;75.50;;;;;;4980896;28;20057;-46
2021/12/19 14:09:45;;;;;;;2.63;1.33;;;10.60;75.70;;;;;;4991808;28;20505;-47
2021/12/19 14:12:24;;;;;;;2.15;1.48;;;10.60;75.80;;;;;;4983554;28;20490;-47
2021/12/19 14:14:51;;;;;;;2.78;1.70;;;10.50;75.90;;;;;;4990278;28;20042;-47